sensor_id;sensor_type;location;lat;lon;timestamp;P1;durP1;ratioP1;P2;durP2;ratioP2
84989;SDS011;75307;53.836;10.476;2024-02-21T16:27:50;16.17;;;7.50;;
84989;SDS011;75307;53.836;10.476;2024-02-21T16:29:52;17.50;;;7.72;;
84989;SDS011;75307;53.836;10.476;2024-02-21T16:31:54;18.33;;;7.65;;
84989;SDS011;75307;53.836;10.476;2024-02-21T16:33:56;17.38;;;9.15;;
84989;SDS011;75307;53.836;10.476;2024-02-21T16:35:57;15.05;;;8.75;;
84989;SDS011;75307;53.836;10.476;2024-02-21T16:38:00;16.42;;;8.23;;
84989;SDS011;75307;53.836;10.476;2024-02-21T16:40:02;14.60;;;7.43;;
84989;SDS011;75307;53.836;10.476;2024-02-21T16:42:05;17.45;;;7.78;;
84989;SDS011;75307;53.836;10.476;2024-02-21T16:44:08;14.13;;;8.10;;
84989;SDS011;75307;53.836;10.476;2024-02-21T16:46:10;15.93;;;6.47;;
84989;SDS011;75307;53.836;10.476;2024-02-21T16:48:12;20.25;;;9.02;;
84989;SDS011;75307;53.836;10.476;2024-02-21T16:50:13;16.08;;;7.15;;
84989;SDS011;75307;53.836;10.476;2024-02-21T16:52:15;13.00;;;6.80;;
84989;SDS011;75307;53.836;10.476;2024-02-21T16:54:20;13.73;;;6.45;;
84989;SDS011;75307;53.836;10.476;2024-02-21T16:56:22;12.18;;;7.70;;
84989;SDS011;75307;53.836;10.476;2024-02-21T16:58:24;10.23;;;5.88;;
84989;SDS011;75307;53.836;10.476;2024-02-21T17:00:27;12.60;;;7.63;;
84989;SDS011;75307;53.836;10.476;2024-02-21T17:02:29;11.45;;;6.43;;
84989;SDS011;75307;53.836;10.476;2024-02-21T17:04:31;12.35;;;6.65;;
84989;SDS011;75307;53.836;10.476;2024-02-21T17:06:33;12.02;;;8.00;;
84989;SDS011;75307;53.836;10.476;2024-02-21T17:10:35;12.25;;;6.28;;
84989;SDS011;75307;53.836;10.476;2024-02-21T17:14:37;15.80;;;6.70;;
84989;SDS011;75307;53.836;10.476;2024-02-21T17:16:41;13.70;;;8.05;;
84989;SDS011;75307;53.836;10.476;2024-02-21T17:18:43;13.95;;;8.05;;
84989;SDS011;75307;53.836;10.476;2024-02-21T17:20:46;12.77;;;6.30;;
84989;SDS011;75307;53.836;10.476;2024-02-21T17:22:49;14.35;;;7.85;;
84989;SDS011;75307;53.836;10.476;2024-02-21T17:24:50;14.05;;;7.32;;
84989;SDS011;75307;53.836;10.476;2024-02-21T17:26:52;14.55;;;8.43;;
84989;SDS011;75307;53.836;10.476;2024-02-21T17:28:54;10.85;;;6.30;;
84989;SDS011;75307;53.836;10.476;2024-02-21T17:30:56;10.38;;;6.43;;
84989;SDS011;75307;53.836;10.476;2024-02-21T17:32:59;12.68;;;6.90;;
84989;SDS011;75307;53.836;10.476;2024-02-21T17:35:01;11.15;;;7.00;;
84989;SDS011;75307;53.836;10.476;2024-02-21T17:37:04;12.30;;;5.93;;
84989;SDS011;75307;53.836;10.476;2024-02-21T17:39:06;15.40;;;8.32;;
84989;SDS011;75307;53.836;10.476;2024-02-21T17:41:09;14.23;;;7.10;;
84989;SDS011;75307;53.836;10.476;2024-02-21T17:43:11;13.90;;;7.55;;
84989;SDS011;75307;53.836;10.476;2024-02-21T17:45:13;17.02;;;6.80;;
84989;SDS011;75307;53.836;10.476;2024-02-21T17:49:17;8.63;;;6.45;;
84989;SDS011;75307;53.836;10.476;2024-02-21T17:51:20;10.32;;;6.25;;
84989;SDS011;75307;53.836;10.476;2024-02-21T17:53:22;11.20;;;5.72;;
84989;SDS011;75307;53.836;10.476;2024-02-21T17:55:25;12.63;;;6.25;;
84989;SDS011;75307;53.836;10.476;2024-02-21T17:57:27;9.50;;;5.50;;
84989;SDS011;75307;53.836;10.476;2024-02-21T17:59:28;10.18;;;5.63;;
84989;SDS011;75307;53.836;10.476;2024-02-21T18:01:30;8.70;;;5.05;;
84989;SDS011;75307;53.836;10.476;2024-02-21T18:05:34;7.35;;;4.38;;
84989;SDS011;75307;53.836;10.476;2024-02-21T18:07:34;13.05;;;6.88;;
84989;SDS011;75307;53.836;10.476;2024-02-21T18:09:37;10.25;;;5.63;;
84989;SDS011;75307;53.836;10.476;2024-02-21T18:11:39;13.20;;;7.05;;
84989;SDS011;75307;53.836;10.476;2024-02-21T18:13:40;14.82;;;8.88;;
84989;SDS011;75307;53.836;10.476;2024-02-21T18:15:42;9.18;;;5.38;;
84989;SDS011;75307;53.836;10.476;2024-02-21T18:17:44;11.75;;;7.70;;
84989;SDS011;75307;53.836;10.476;2024-02-21T18:19:45;11.23;;;6.47;;
84989;SDS011;75307;53.836;10.476;2024-02-21T18:21:48;10.55;;;6.03;;
84989;SDS011;75307;53.836;10.476;2024-02-21T18:23:50;16.45;;;8.90;;
84989;SDS011;75307;53.836;10.476;2024-02-21T18:25:52;8.38;;;4.65;;
84989;SDS011;75307;53.836;10.476;2024-02-21T18:27:53;9.45;;;5.57;;
84989;SDS011;75307;53.836;10.476;2024-02-21T18:29:55;13.13;;;7.63;;
84989;SDS011;75307;53.836;10.476;2024-02-21T18:31:57;15.63;;;8.10;;
84989;SDS011;75307;53.836;10.476;2024-02-21T18:33:59;9.65;;;5.45;;
84989;SDS011;75307;53.836;10.476;2024-02-21T18:36:03;10.02;;;6.15;;
84989;SDS011;75307;53.836;10.476;2024-02-21T18:38:07;9.27;;;5.93;;
84989;SDS011;75307;53.836;10.476;2024-02-21T18:40:09;10.05;;;8.02;;
84989;SDS011;75307;53.836;10.476;2024-02-21T18:42:11;11.77;;;6.00;;
84989;SDS011;75307;53.836;10.476;2024-02-21T18:44:13;8.85;;;5.00;;
84989;SDS011;75307;53.836;10.476;2024-02-21T18:46:15;7.65;;;5.18;;
84989;SDS011;75307;53.836;10.476;2024-02-21T18:48:17;9.82;;;5.85;;
84989;SDS011;75307;53.836;10.476;2024-02-21T18:50:18;8.68;;;4.88;;
84989;SDS011;75307;53.836;10.476;2024-02-21T18:52:20;7.03;;;4.20;;
84989;SDS011;75307;53.836;10.476;2024-02-21T18:54:23;6.40;;;3.35;;
84989;SDS011;75307;53.836;10.476;2024-02-21T18:56:25;9.80;;;3.92;;
84989;SDS011;75307;53.836;10.476;2024-02-21T18:58:28;8.52;;;4.57;;
84989;SDS011;75307;53.836;10.476;2024-02-21T19:00:31;9.30;;;6.20;;
84989;SDS011;75307;53.836;10.476;2024-02-21T19:02:33;7.43;;;4.90;;
84989;SDS011;75307;53.836;10.476;2024-02-21T19:04:35;9.23;;;3.70;;
84989;SDS011;75307;53.836;10.476;2024-02-21T19:06:37;6.30;;;4.30;;
84989;SDS011;75307;53.836;10.476;2024-02-21T19:08:39;12.13;;;6.65;;
84989;SDS011;75307;53.836;10.476;2024-02-21T19:10:41;8.32;;;3.63;;
84989;SDS011;75307;53.836;10.476;2024-02-21T19:12:43;9.75;;;5.07;;
84989;SDS011;75307;53.836;10.476;2024-02-21T19:14:45;7.18;;;3.90;;
84989;SDS011;75307;53.836;10.476;2024-02-21T19:16:46;7.68;;;3.60;;
84989;SDS011;75307;53.836;10.476;2024-02-21T19:18:48;8.40;;;4.88;;
84989;SDS011;75307;53.836;10.476;2024-02-21T19:20:50;8.65;;;4.75;;
84989;SDS011;75307;53.836;10.476;2024-02-21T19:22:52;8.90;;;3.95;;
84989;SDS011;75307;53.836;10.476;2024-02-21T19:24:54;6.68;;;3.42;;
84989;SDS011;75307;53.836;10.476;2024-02-21T19:26:56;8.10;;;3.75;;
84989;SDS011;75307;53.836;10.476;2024-02-21T19:28:58;10.65;;;5.03;;
84989;SDS011;75307;53.836;10.476;2024-02-21T19:31:00;8.50;;;4.53;;
84989;SDS011;75307;53.836;10.476;2024-02-21T19:33:03;9.35;;;4.30;;
84989;SDS011;75307;53.836;10.476;2024-02-21T19:35:05;13.13;;;6.32;;
84989;SDS011;75307;53.836;10.476;2024-02-21T19:37:11;13.02;;;4.80;;
84989;SDS011;75307;53.836;10.476;2024-02-21T19:39:13;8.63;;;4.78;;
84989;SDS011;75307;53.836;10.476;2024-02-21T19:41:15;7.82;;;4.00;;
84989;SDS011;75307;53.836;10.476;2024-02-21T19:43:18;13.05;;;7.82;;
84989;SDS011;75307;53.836;10.476;2024-02-21T19:45:19;8.50;;;4.75;;
84989;SDS011;75307;53.836;10.476;2024-02-21T19:47:21;8.63;;;4.03;;
84989;SDS011;75307;53.836;10.476;2024-02-21T19:49:22;6.55;;;4.45;;
84989;SDS011;75307;53.836;10.476;2024-02-21T19:51:25;8.98;;;4.65;;
84989;SDS011;75307;53.836;10.476;2024-02-21T19:53:26;7.50;;;3.72;;
84989;SDS011;75307;53.836;10.476;2024-02-21T19:55:28;8.70;;;3.92;;
84989;SDS011;75307;53.836;10.476;2024-02-21T19:57:30;10.05;;;5.50;;
84989;SDS011;75307;53.836;10.476;2024-02-21T19:59:33;6.68;;;4.07;;
84989;SDS011;75307;53.836;10.476;2024-02-21T20:01:36;9.40;;;3.70;;
84989;SDS011;75307;53.836;10.476;2024-02-21T20:03:39;12.48;;;3.83;;
84989;SDS011;75307;53.836;10.476;2024-02-21T20:05:41;9.85;;;6.20;;
84989;SDS011;75307;53.836;10.476;2024-02-21T20:07:44;7.43;;;3.65;;
84989;SDS011;75307;53.836;10.476;2024-02-21T20:09:45;7.28;;;3.47;;
84989;SDS011;75307;53.836;10.476;2024-02-21T20:11:48;7.72;;;2.72;;
84989;SDS011;75307;53.836;10.476;2024-02-21T20:13:50;7.20;;;4.75;;
84989;SDS011;75307;53.836;10.476;2024-02-21T20:15:53;7.85;;;4.18;;
84989;SDS011;75307;53.836;10.476;2024-02-21T20:17:55;7.88;;;3.63;;
84989;SDS011;75307;53.836;10.476;2024-02-21T20:19:59;9.73;;;3.92;;
84989;SDS011;75307;53.836;10.476;2024-02-21T20:24:02;8.60;;;4.05;;
84989;SDS011;75307;53.836;10.476;2024-02-21T20:26:04;8.07;;;2.92;;
84989;SDS011;75307;53.836;10.476;2024-02-21T20:28:06;6.05;;;2.67;;
84989;SDS011;75307;53.836;10.476;2024-02-21T20:30:08;7.55;;;4.10;;
84989;SDS011;75307;53.836;10.476;2024-02-21T20:32:12;7.00;;;3.85;;
84989;SDS011;75307;53.836;10.476;2024-02-21T20:34:14;7.13;;;2.92;;
84989;SDS011;75307;53.836;10.476;2024-02-21T20:36:17;7.00;;;3.45;;
84989;SDS011;75307;53.836;10.476;2024-02-21T20:38:18;6.50;;;3.60;;
84989;SDS011;75307;53.836;10.476;2024-02-21T20:40:20;7.68;;;2.97;;
84989;SDS011;75307;53.836;10.476;2024-02-21T20:42:23;7.63;;;3.30;;
84989;SDS011;75307;53.836;10.476;2024-02-21T20:44:25;6.43;;;3.72;;
84989;SDS011;75307;53.836;10.476;2024-02-21T20:46:26;7.40;;;3.92;;
84989;SDS011;75307;53.836;10.476;2024-02-21T20:48:29;8.48;;;3.85;;
84989;SDS011;75307;53.836;10.476;2024-02-21T20:50:31;6.65;;;3.70;;
84989;SDS011;75307;53.836;10.476;2024-02-21T20:52:33;6.15;;;2.72;;
84989;SDS011;75307;53.836;10.476;2024-02-21T20:54:34;7.70;;;2.53;;
84989;SDS011;75307;53.836;10.476;2024-02-21T20:56:36;6.05;;;2.45;;
84989;SDS011;75307;53.836;10.476;2024-02-21T20:58:38;8.30;;;3.22;;
84989;SDS011;75307;53.836;10.476;2024-02-21T21:00:39;5.43;;;2.80;;
84989;SDS011;75307;53.836;10.476;2024-02-21T21:02:40;5.00;;;2.05;;
84989;SDS011;75307;53.836;10.476;2024-02-21T21:04:43;8.60;;;3.10;;
84989;SDS011;75307;53.836;10.476;2024-02-21T21:06:45;4.55;;;2.55;;
84989;SDS011;75307;53.836;10.476;2024-02-21T21:08:47;4.80;;;2.50;;
84989;SDS011;75307;53.836;10.476;2024-02-21T21:10:48;8.48;;;4.35;;
84989;SDS011;75307;53.836;10.476;2024-02-21T21:12:50;5.60;;;2.78;;
84989;SDS011;75307;53.836;10.476;2024-02-21T21:14:52;6.35;;;3.67;;
84989;SDS011;75307;53.836;10.476;2024-02-21T21:16:54;5.43;;;2.53;;
84989;SDS011;75307;53.836;10.476;2024-02-21T21:18:55;7.93;;;2.25;;
84989;SDS011;75307;53.836;10.476;2024-02-21T21:20:59;5.85;;;3.15;;
84989;SDS011;75307;53.836;10.476;2024-02-21T21:23:01;7.13;;;2.70;;
84989;SDS011;75307;53.836;10.476;2024-02-21T21:25:03;9.35;;;2.83;;
84989;SDS011;75307;53.836;10.476;2024-02-21T21:27:05;7.43;;;3.08;;
84989;SDS011;75307;53.836;10.476;2024-02-21T21:29:07;7.15;;;3.30;;
84989;SDS011;75307;53.836;10.476;2024-02-21T21:31:09;5.95;;;2.90;;
84989;SDS011;75307;53.836;10.476;2024-02-21T21:33:10;5.10;;;2.17;;
84989;SDS011;75307;53.836;10.476;2024-02-21T21:35:12;6.10;;;3.10;;
84989;SDS011;75307;53.836;10.476;2024-02-21T21:37:15;6.20;;;2.30;;
84989;SDS011;75307;53.836;10.476;2024-02-21T21:39:16;5.57;;;2.33;;
84989;SDS011;75307;53.836;10.476;2024-02-21T21:41:18;3.47;;;2.35;;
84989;SDS011;75307;53.836;10.476;2024-02-21T21:43:21;7.35;;;2.55;;
84989;SDS011;75307;53.836;10.476;2024-02-21T21:45:23;4.13;;;2.17;;
84989;SDS011;75307;53.836;10.476;2024-02-21T21:47:24;4.35;;;2.45;;
84989;SDS011;75307;53.836;10.476;2024-02-21T21:49:26;4.82;;;2.40;;
84989;SDS011;75307;53.836;10.476;2024-02-21T21:51:29;5.85;;;3.33;;
84989;SDS011;75307;53.836;10.476;2024-02-21T21:53:32;6.60;;;2.95;;
84989;SDS011;75307;53.836;10.476;2024-02-21T21:55:34;6.25;;;2.63;;
84989;SDS011;75307;53.836;10.476;2024-02-21T21:57:35;4.22;;;2.42;;
84989;SDS011;75307;53.836;10.476;2024-02-21T21:59:37;6.35;;;2.55;;
84989;SDS011;75307;53.836;10.476;2024-02-21T22:01:39;4.32;;;2.00;;
84989;SDS011;75307;53.836;10.476;2024-02-21T22:03:41;5.00;;;2.95;;
84989;SDS011;75307;53.836;10.476;2024-02-21T22:05:43;5.30;;;2.53;;
84989;SDS011;75307;53.836;10.476;2024-02-21T22:07:45;4.97;;;2.75;;
84989;SDS011;75307;53.836;10.476;2024-02-21T22:09:49;7.63;;;3.15;;
84989;SDS011;75307;53.836;10.476;2024-02-21T22:11:50;7.57;;;3.33;;
84989;SDS011;75307;53.836;10.476;2024-02-21T22:13:52;5.47;;;3.05;;
84989;SDS011;75307;53.836;10.476;2024-02-21T22:15:54;7.82;;;3.03;;
84989;SDS011;75307;53.836;10.476;2024-02-21T22:17:56;4.45;;;2.00;;
84989;SDS011;75307;53.836;10.476;2024-02-21T22:19:59;8.00;;;2.92;;
84989;SDS011;75307;53.836;10.476;2024-02-21T22:22:01;7.22;;;2.55;;
84989;SDS011;75307;53.836;10.476;2024-02-21T22:24:04;5.78;;;3.00;;
84989;SDS011;75307;53.836;10.476;2024-02-21T22:26:08;5.78;;;3.00;;
84989;SDS011;75307;53.836;10.476;2024-02-21T22:28:10;8.13;;;2.50;;
84989;SDS011;75307;53.836;10.476;2024-02-21T22:30:11;6.13;;;3.38;;
84989;SDS011;75307;53.836;10.476;2024-02-21T22:32:13;7.35;;;2.83;;
84989;SDS011;75307;53.836;10.476;2024-02-21T22:34:14;4.97;;;3.13;;
84989;SDS011;75307;53.836;10.476;2024-02-21T22:36:16;6.22;;;2.35;;
84989;SDS011;75307;53.836;10.476;2024-02-21T22:38:17;6.65;;;3.63;;
84989;SDS011;75307;53.836;10.476;2024-02-21T22:40:19;6.47;;;2.28;;
84989;SDS011;75307;53.836;10.476;2024-02-21T22:42:22;6.18;;;2.45;;
84989;SDS011;75307;53.836;10.476;2024-02-21T22:44:24;5.85;;;2.45;;
84989;SDS011;75307;53.836;10.476;2024-02-21T22:46:26;5.93;;;2.00;;
84989;SDS011;75307;53.836;10.476;2024-02-21T22:48:28;6.45;;;2.70;;
84989;SDS011;75307;53.836;10.476;2024-02-21T22:50:29;6.45;;;3.08;;
84989;SDS011;75307;53.836;10.476;2024-02-21T22:52:31;6.32;;;3.20;;
84989;SDS011;75307;53.836;10.476;2024-02-21T22:54:33;6.35;;;2.90;;
84989;SDS011;75307;53.836;10.476;2024-02-21T22:56:35;5.00;;;3.72;;
84989;SDS011;75307;53.836;10.476;2024-02-21T22:58:38;4.78;;;2.75;;
84989;SDS011;75307;53.836;10.476;2024-02-21T23:00:39;6.28;;;2.08;;
84989;SDS011;75307;53.836;10.476;2024-02-21T23:02:41;5.35;;;2.88;;
84989;SDS011;75307;53.836;10.476;2024-02-21T23:04:43;6.93;;;2.40;;
84989;SDS011;75307;53.836;10.476;2024-02-21T23:06:45;7.65;;;2.88;;
84989;SDS011;75307;53.836;10.476;2024-02-21T23:08:47;5.53;;;3.05;;
84989;SDS011;75307;53.836;10.476;2024-02-21T23:10:49;5.63;;;2.33;;
84989;SDS011;75307;53.836;10.476;2024-02-21T23:12:51;6.70;;;2.28;;
84989;SDS011;75307;53.836;10.476;2024-02-21T23:14:54;7.55;;;3.15;;
84989;SDS011;75307;53.836;10.476;2024-02-21T23:16:55;5.32;;;3.00;;
84989;SDS011;75307;53.836;10.476;2024-02-21T23:18:57;2.60;;;1.83;;
84989;SDS011;75307;53.836;10.476;2024-02-21T23:20:58;5.82;;;2.35;;
84989;SDS011;75307;53.836;10.476;2024-02-21T23:23:00;2.95;;;1.48;;
84989;SDS011;75307;53.836;10.476;2024-02-21T23:25:03;6.13;;;2.53;;
84989;SDS011;75307;53.836;10.476;2024-02-21T23:27:05;4.40;;;2.65;;
84989;SDS011;75307;53.836;10.476;2024-02-21T23:29:07;4.15;;;1.75;;
84989;SDS011;75307;53.836;10.476;2024-02-21T23:31:11;5.10;;;3.03;;
84989;SDS011;75307;53.836;10.476;2024-02-21T23:33:14;5.20;;;1.83;;
84989;SDS011;75307;53.836;10.476;2024-02-21T23:35:16;5.20;;;2.30;;
84989;SDS011;75307;53.836;10.476;2024-02-21T23:37:17;4.68;;;2.72;;
84989;SDS011;75307;53.836;10.476;2024-02-21T23:39:19;4.03;;;2.30;;
84989;SDS011;75307;53.836;10.476;2024-02-21T23:41:21;6.63;;;2.42;;
84989;SDS011;75307;53.836;10.476;2024-02-21T23:43:23;4.88;;;2.70;;
84989;SDS011;75307;53.836;10.476;2024-02-21T23:45:25;3.83;;;1.73;;
84989;SDS011;75307;53.836;10.476;2024-02-21T23:47:28;6.70;;;2.72;;
84989;SDS011;75307;53.836;10.476;2024-02-21T23:49:29;6.28;;;2.33;;
84989;SDS011;75307;53.836;10.476;2024-02-21T23:51:31;7.30;;;2.55;;
84989;SDS011;75307;53.836;10.476;2024-02-21T23:53:33;5.05;;;2.75;;
84989;SDS011;75307;53.836;10.476;2024-02-21T23:55:34;5.75;;;2.17;;
84989;SDS011;75307;53.836;10.476;2024-02-21T23:57:36;5.72;;;2.85;;
84989;SDS011;75307;53.836;10.476;2024-02-21T23:59:39;3.53;;;1.85;;
